Latest Weather Observations for PORTABLE RFSNSW52

IDN60801

Issued at 12:22 pm EDT Wednesday 20 March 2019 (issued every 10 minutes, with the page automatically refreshed every 10 minutes)

About weather observations | Map of weather stations | Latest weather observations for NSW | Other Formats
Station Details ID: 250095 Name: PORTABLE RFSNSW52 Lat: -35.26 Lon: 146.38 Height: 147.0 m
Data from the previous 72 hours. | See also: Recent months for locations in New South Wales
Date/Time
EDT
Temp
°C
App
Temp
°C
Dew
Point
°C
Rel
Hum
%
Delta-T
°C
Wind Press
QNH
hPa
Press
MSL
hPa
Rain since
9am
mm
Dir  Spd
km/h
Gust
km/h
Spd
kts
Gust
kts
20/11:50am 30.4 29.5 13.7 36 10.1 N 11 13 6 7 - - 0.0
20/11:40am 30.3 29.9 14.2 37 9.8 N 9 15 5 8 - - 0.0
20/11:30am 30.0 29.6 14.0 37 9.7 N 9 11 5 6 - - 0.0
20/11:20am 29.5 29.1 14.2 39 9.3 NNE 9 15 5 8 - - 0.0
20/11:10am 29.4 28.2 14.0 39 9.3 NNE 13 17 7 9 - - 0.0
20/11:00am 28.9 27.7 14.1 40 8.9 NNE 13 17 7 9 - - 0.0
20/10:50am 28.5 27.3 14.0 41 8.7 NE 13 15 7 8 - - 0.0
20/10:40am 28.1 27.0 14.2 42 8.4 NE 13 15 7 8 - - 0.0
20/10:30am 27.8 26.7 14.4 43 8.1 NNE 13 17 7 9 - - 0.0
20/10:20am 27.3 26.2 14.4 45 7.8 NNE 13 17 7 9 - - 0.0
20/10:10am 27.3 26.6 14.3 45 7.8 NNE 11 13 6 7 - - 0.0
20/10:00am 26.5 25.4 14.4 47 7.3 NE 13 15 7 8 - - 0.0
20/09:50am 26.2 25.2 14.5 48 7.0 NNE 13 17 7 9 - - 0.0
20/09:40am 25.5 24.5 14.5 50 6.6 NE 13 15 7 8 - - 0.0
20/09:30am 25.0 24.0 14.6 52 6.2 NE 13 17 7 9 - - 0.0
20/09:20am 24.6 24.0 14.7 54 5.9 NE 11 15 6 8 - - 0.0
20/09:10am 23.9 22.9 14.7 56 5.5 NE 13 17 7 9 - - 0.0
20/09:00am 23.5 22.5 14.7 57 5.3 NE 13 17 7 9 - - 0.0
20/08:50am 23.3 22.7 14.7 58 5.1 NE 11 15 6 8 - - 0.0
20/08:40am 22.7 21.7 14.7 60 4.8 NE 13 15 7 8 - - 0.0
20/08:30am 22.4 21.8 14.7 61 4.6 NE 11 15 6 8 - - 0.0
20/08:20am 22.0 21.4 14.7 63 4.3 NE 11 13 6 7 - - 0.0
20/08:10am 21.6 21.3 14.5 64 4.2 NE 9 13 5 7 - - 0.0
20/08:00am 21.0 20.3 14.4 66 3.9 ENE 11 13 6 7 - - 0.0
20/07:50am 20.3 20.0 14.4 69 3.5 ENE 9 11 5 6 - - 0.0
20/07:40am 20.2 19.9 14.3 69 3.4 ENE 9 9 5 5 - - 0.0
20/07:30am 20.0 19.6 14.2 69 3.4 ENE 9 9 5 5 - - 0.0
20/07:20am 20.1 19.8 14.3 69 3.4 ENE 9 11 5 6 - - 0.0
20/07:00am 20.3 20.0 14.3 68 3.5 NE 9 11 5 6 - - 0.0
20/06:50am 20.1 20.1 14.3 69 3.4 NE 7 9 4 5 - - 0.0
20/06:40am 20.3 20.3 14.2 68 3.6 ENE 7 7 4 4 - - 0.0
20/06:30am 20.5 20.1 14.2 67 3.7 NE 9 9 5 5 - - 0.0
20/06:20am 20.5 20.5 14.2 67 3.7 NE 7 11 4 6 - - 0.0
20/06:10am 20.7 20.7 14.2 66 3.8 NE 7 9 4 5 - - 0.0
20/06:00am 20.8 20.8 14.3 66 3.8 NE 7 9 4 5 - - 0.0
20/05:50am 21.0 20.7 14.3 65 3.9 NE 9 11 5 6 - - 0.0
20/05:40am 21.2 20.9 14.3 64 4.0 NE 9 11 5 6 - - 0.0
20/05:30am 21.2 20.8 14.2 64 4.1 NE 9 13 5 7 - - 0.0
20/05:20am 21.2 20.8 14.1 64 4.2 NE 9 11 5 6 - - 0.0
20/05:10am 21.3 20.9 14.0 63 4.3 NE 9 11 5 6 - - 0.0
20/05:00am 21.3 21.3 14.1 63 4.2 NE 7 9 4 5 - - 0.0
20/04:50am 21.6 20.8 14.1 62 4.4 NE 11 13 6 7 - - 0.0
20/04:40am 21.6 20.8 14.1 62 4.4 NE 11 11 6 6 - - 0.0
20/04:30am 21.6 21.1 13.9 61 4.5 NE 9 11 5 6 - - 0.0
20/04:20am 21.6 21.5 13.9 61 4.5 NE 7 9 4 5 - - 0.0
20/04:10am 21.7 21.6 13.8 60 4.6 NE 7 9 4 5 - - 0.0
20/04:00am 21.7 21.6 13.8 60 4.6 NNE 7 7 4 4 - - 0.0
20/03:50am 21.8 21.9 13.8 60 4.7 NE 6 7 3 4 - - 0.0
20/03:40am 22.0 21.9 13.8 59 4.8 NE 7 9 4 5 - - 0.0
20/03:30am 22.4 21.8 13.6 57 5.1 NE 9 9 5 5 - - 0.0
20/03:00am 22.8 22.1 13.1 54 5.6 NE 9 11 5 6 - - 0.0
20/02:30am 21.9 21.1 11.6 52 5.8 ENE 7 9 4 5 - - 0.0
20/02:20am 22.2 20.7 10.6 47 6.4 ENE 9 9 5 5 - - 0.0
20/02:10am 22.2 20.7 10.4 47 6.5 E 9 11 5 6 - - 0.0
20/02:00am 22.1 20.9 10.2 46 6.5 E 7 9 4 5 - - 0.0
20/01:50am 21.7 20.5 10.2 48 6.3 E 7 9 4 5 - - 0.0
20/01:40am 22.1 20.4 10.0 46 6.6 E 9 11 5 6 - - 0.0
20/01:30am 22.3 19.9 10.0 45 6.7 ENE 13 17 7 9 - - 0.0
20/01:20am 23.1 20.8 10.6 45 6.9 ESE 13 17 7 9 - - 0.0
20/01:10am 24.6 22.7 11.7 44 7.4 SSE 13 15 7 8 - - 0.0
20/01:00am 24.5 22.2 11.7 44 7.3 SSE 15 17 8 9 - - 0.0
20/12:50am 24.4 21.7 11.6 44 7.3 SSE 17 17 9 9 - - 0.0
20/12:40am 24.7 22.0 11.6 44 7.5 S 17 19 9 10 - - 0.0
20/12:30am 24.8 22.0 11.4 43 7.6 S 17 19 9 10 - - 0.0
20/12:20am 25.0 22.2 11.2 42 7.8 SSE 17 19 9 10 - - 0.0
20/12:00am 22.8 20.7 9.9 44 7.1 S 11 13 6 7 - - 0.0
 
Date/Time
EDT
Temp
°C
App
Temp
°C
Dew
Point
°C
Rel
Hum
%
Delta-T
°C
Wind Press
QNH
hPa
Press
MSL
hPa
Rain since
9am
mm
Dir  Spd
km/h
Gust
km/h
Spd
kts
Gust
kts
19/11:50pm 22.3 20.9 9.5 44 6.9 SSW 7 9 4 5 - - 0.0
19/11:40pm 22.2 20.8 9.5 44 6.9 SSW 7 7 4 4 - - 0.0
19/11:30pm 22.2 20.8 9.5 44 6.9 SSW 7 7 4 4 - - 0.0
19/11:20pm 22.4 21.2 9.7 44 6.9 SW 6 6 3 3 - - 0.0
19/11:10pm 22.9 21.7 9.7 43 7.2 SSW 6 6 3 3 - - 0.0
19/11:00pm 23.2 22.0 9.7 42 7.4 SW 6 7 3 4 - - 0.0
19/10:40pm 23.4 22.0 9.7 41 7.5 SSW 7 7 4 4 - - 0.0
19/10:30pm 23.5 22.2 9.9 42 7.5 SSW 7 7 4 4 - - 0.0
19/10:20pm 23.6 22.9 9.9 42 7.5 SSW 4 6 2 3 - - 0.0
19/10:10pm 24.1 23.0 9.9 40 7.8 SW 6 7 3 4 - - 0.0
19/10:00pm 24.7 23.4 10.0 39 8.1 SSW 7 11 4 6 - - 0.0
19/09:50pm 25.1 23.4 9.7 37 8.5 SSE 9 9 5 5 - - 0.0
19/09:40pm 25.1 23.4 9.9 38 8.4 SSE 9 9 5 5 - - 0.0
19/09:30pm 25.6 24.0 10.2 38 8.6 S 9 9 5 5 - - 0.0
19/09:20pm 26.6 25.3 10.1 35 9.2 SSE 7 9 4 5 - - 0.0
19/09:10pm 26.1 24.7 9.7 35 9.1 SSE 7 9 4 5 - - 0.0
19/09:00pm 25.2 24.1 10.1 38 8.4 S 6 9 3 5 - - 0.0
19/08:50pm 25.4 24.3 9.9 37 8.6 SSW 6 6 3 3 - - 0.0
19/08:30pm 26.0 24.8 9.7 35 9.0 S 6 7 3 4 - - 0.0
19/08:20pm 26.3 25.1 9.5 34 9.3 S 6 6 3 3 - - 0.0
19/08:10pm 26.4 24.9 9.1 33 9.5 SSW 7 7 4 4 - - 0.0
19/08:00pm 27.0 25.7 9.3 32 9.8 SSW 6 7 3 4 - - 0.0
19/07:50pm 27.6 26.5 9.8 32 10.0 SSW 6 6 3 3 - - 0.0
19/07:40pm 28.2 27.2 10.2 32 10.2 SSW 6 6 3 3 - - 0.0
19/07:30pm 28.9 28.0 10.5 31 10.5 S 6 7 3 4 - - 0.0
19/07:20pm 29.7 28.5 10.4 30 11.0 SSW 7 11 4 6 - - 0.0
19/07:10pm 30.3 28.8 10.5 29 11.4 SSW 9 11 5 6 - - 0.0
19/07:00pm 30.8 29.6 10.2 28 11.8 S 7 9 4 5 - - 0.0
19/06:50pm 31.1 29.5 10.2 27 12.0 SSW 9 11 5 6 - - 0.0
19/06:40pm 31.3 29.2 9.7 26 12.3 S 11 15 6 8 - - 0.0
19/06:30pm 31.6 29.5 9.9 26 12.4 S 11 13 6 7 - - 0.0
19/06:20pm 31.8 29.8 10.3 26 12.4 S 11 17 6 9 - - 0.0
19/06:10pm 32.0 30.1 10.6 26 12.4 SSW 11 19 6 10 - - 0.0
19/06:00pm 31.8 30.6 10.4 26 12.3 SSW 7 13 4 7 - - 0.0
19/05:40pm 31.6 30.1 10.6 27 12.1 WSW 9 17 5 9 - - 0.0
19/05:20pm 32.7 30.8 10.5 25 12.9 SW 11 17 6 9 - - 0.0
19/05:10pm 32.3 30.9 10.9 27 12.5 S 9 15 5 8 - - 0.0
19/05:00pm 32.2 30.4 10.9 27 12.4 SW 11 19 6 10 - - 0.0
19/04:50pm 32.4 31.2 11.5 27 12.3 SW 9 17 5 9 - - 0.0
19/04:40pm 32.4 31.2 11.7 28 12.2 WSW 9 15 5 8 - - 0.0
19/04:30pm 30.9 29.0 11.8 31 11.2 WSW 13 15 7 8 - - 0.0
19/04:20pm 31.2 29.8 12.2 31 11.2 W 11 15 6 8 - - 0.0
19/04:10pm 31.9 30.3 11.5 28 12.0 WSW 11 15 6 8 - - 0.0
19/04:00pm 32.4 30.9 12.0 28 12.1 SW 11 19 6 10 - - 0.0
19/03:50pm 31.9 31.0 12.5 30 11.6 S 9 15 5 8 - - 0.0
19/03:40pm 31.0 30.4 12.3 31 11.1 SSW 7 11 4 6 - - 0.0
19/03:30pm 30.7 29.5 12.7 33 10.7 WSW 11 19 6 10 - - 0.0
19/03:20pm 30.8 29.4 12.1 31 11.0 WSW 11 15 6 8 - - 0.0
19/03:10pm 30.7 30.4 13.2 34 10.5 S 7 9 4 5 - - 0.0
19/03:00pm 30.8 30.0 13.0 33 10.7 S 9 13 5 7 - - 0.0
19/02:50pm 31.2 30.2 14.5 36 10.2 SSW 13 15 7 8 - - 0.0
19/02:40pm 32.1 31.4 14.3 34 10.9 WSW 11 15 6 8 - - 0.0
19/02:30pm 31.4 31.3 14.0 34 10.6 W 7 17 4 9 - - 0.0
19/02:20pm 30.8 30.1 14.3 36 10.1 W 11 17 6 9 - - 0.0
19/02:10pm 30.5 30.3 13.7 35 10.1 W 7 13 4 7 - - 0.0
19/02:00pm 29.4 29.1 14.5 40 9.1 S 9 11 5 6 - - 0.0
19/01:50pm 30.2 30.0 13.7 36 10.0 SSE 7 11 4 6 - - 0.0
19/01:30pm 30.2 29.6 14.7 39 9.5 SW 11 13 6 7 - - 0.0
19/01:20pm 30.0 29.2 14.0 37 9.7 WSW 11 15 6 8 - - 0.0
19/01:10pm 29.4 29.8 14.8 41 8.9 ESE 6 7 3 4 - - 0.0
19/01:00pm 29.8 29.8 14.3 38 9.4 WSW 7 11 4 6 - - 0.0
19/12:50pm 28.8 28.7 14.9 42 8.5 WSW 9 13 5 7 - - 0.0
19/12:40pm 30.1 30.6 14.9 39 9.3 S 6 7 3 4 - - 0.0
19/12:30pm 30.0 30.3 14.6 39 9.4 ESE 6 9 3 5 - - 0.0
19/12:20pm 29.8 30.3 15.0 40 9.1 S 6 9 3 5 - - 0.0
19/12:10pm 29.6 30.0 14.8 40 9.1 WNW 6 7 3 4 - - 0.0
19/12:00pm 29.0 29.5 15.1 42 8.5 WNW 6 9 3 5 - - 0.0
19/11:50am 29.2 29.4 14.7 41 8.9 NNW 7 9 4 5 - - 0.0
19/11:40am 28.7 28.6 15.0 43 8.4 NNW 9 13 5 7 - - 0.0
19/11:30am 28.6 29.2 15.3 44 8.2 NW 6 7 3 4 - - 0.0
19/11:20am 28.6 29.6 15.3 44 8.2 NNE 4 6 2 3 - - 0.0
19/11:10am 28.3 29.2 15.1 44 8.1 ENE 4 7 2 4 - - 0.0
19/11:00am 28.1 29.0 15.0 44 8.0 NNW 4 6 2 3 - - 0.0
19/10:50am 27.5 28.4 15.1 46 7.6 E 4 7 2 4 - - 0.0
19/10:40am 27.4 27.9 15.1 47 7.5 NE 6 9 3 5 - - 0.0
19/10:30am 27.2 27.7 15.1 47 7.4 N 6 7 3 4 - - 0.0
19/10:20am 26.8 27.4 15.3 49 7.0 NE 6 7 3 4 - - 0.0
19/10:00am 26.3 27.2 15.1 50 6.8 NE 4 6 2 3 - - 0.0
19/09:50am 25.6 26.2 15.2 52 6.3 ENE 6 7 3 4 - - 0.0
19/09:40am 25.3 26.3 15.3 54 6.1 E 4 7 2 4 - - 0.0
19/09:30am 24.8 25.5 15.5 56 5.7 E 6 7 3 4 - - 0.0
19/09:20am 24.3 24.7 15.3 57 5.4 E 7 9 4 5 - - 0.0
19/09:10am 23.8 24.2 15.3 59 5.1 E 7 9 4 5 - - 0.0
19/09:00am 23.2 23.5 15.1 60 4.9 ESE 7 7 4 4 - - 0.0
19/08:50am 22.6 22.9 15.1 62 4.5 ESE 7 7 4 4 - - 0.0
19/08:40am 22.3 22.6 15.0 63 4.4 E 7 7 4 4 - - 0.0
19/08:30am 21.8 22.1 15.0 65 4.0 E 7 7 4 4 - - 0.0
19/08:20am 21.2 21.4 14.8 67 3.8 E 7 7 4 4 - - 0.0
19/08:10am 20.5 20.9 14.8 70 3.4 E 6 6 3 3 - - 0.0
19/08:00am 19.6 19.7 14.5 72 3.0 E 7 7 4 4 - - 0.0
19/07:50am 18.8 18.9 14.5 76 2.5 E 7 7 4 4 - - 0.0
19/07:40am 18.5 18.5 14.3 76 2.4 E 7 9 4 5 - - 0.0
19/07:30am 18.2 18.2 14.3 78 2.3 ESE 7 7 4 4 - - 0.0
19/07:20am 18.2 18.2 14.3 78 2.3 ESE 7 9 4 5 - - 0.0
19/07:10am 18.4 18.1 14.5 78 2.3 ESE 9 9 5 5 - - 0.0
19/07:00am 18.5 18.3 14.6 78 2.3 ESE 9 9 5 5 - - 0.0
19/06:50am 18.5 18.2 14.5 77 2.3 SE 9 9 5 5 - - 0.0
19/06:40am 18.4 18.7 14.5 78 2.3 SE 6 7 3 4 - - 0.0
19/06:30am 18.5 18.6 14.4 77 2.4 SE 7 7 4 4 - - 0.0
19/06:20am 18.3 18.5 14.3 77 2.3 SE 6 7 3 4 - - 0.0
19/06:00am 18.5 18.2 14.3 76 2.4 ESE 9 9 5 5 - - 0.0
19/05:50am 18.7 18.4 14.3 75 2.6 ESE 9 9 5 5 - - 0.0
19/05:40am 18.7 18.4 14.4 76 2.5 SE 9 11 5 6 - - 0.0
19/05:30am 18.7 18.7 14.2 75 2.6 ESE 7 9 4 5 - - 0.0
19/05:20am 18.8 19.0 14.3 75 2.6 ESE 6 9 3 5 - - 0.0
19/05:10am 19.0 18.3 14.4 74 2.7 SE 11 11 6 6 - - 0.0
19/05:00am 19.2 18.9 14.4 74 2.8 SE 9 11 5 6 - - 0.0
19/04:50am 19.0 19.2 14.3 74 2.7 SE 6 7 3 4 - - 0.0
19/04:40am 19.0 19.0 14.2 73 2.8 SE 7 7 4 4 - - 0.0
19/04:30am 19.1 19.3 14.1 73 2.9 ESE 6 6 3 3 - - 0.0
19/04:20am 18.9 19.1 14.1 73 2.8 ESE 6 7 3 4 - - 0.0
19/04:10am 18.9 19.0 13.8 72 2.9 ESE 6 7 3 4 - - 0.0
19/04:00am 18.2 18.7 14.1 77 2.4 ESE 4 6 2 3 - - 0.0
19/03:50am 18.6 19.4 13.7 73 2.8 SE 2 4 1 2 - - 0.0
19/03:40am 18.7 19.3 14.2 75 2.6 ESE 4 4 2 2 - - 0.0
19/03:30am 19.1 19.2 14.0 72 2.9 ESE 6 7 3 4 - - 0.0
19/03:20am 19.5 19.7 14.1 71 3.1 ESE 6 7 3 4 - - 0.0
19/03:10am 19.7 19.7 14.2 70 3.2 ESE 7 9 4 5 - - 0.0
19/03:00am 19.8 19.8 14.3 70 3.2 ESE 7 9 4 5 - - 0.0
19/02:50am 19.8 19.8 14.3 70 3.2 ESE 7 9 4 5 - - 0.0
19/02:40am 19.7 19.7 14.2 70 3.2 ESE 7 9 4 5 - - 0.0
19/02:30am 19.6 19.6 14.2 71 3.1 ESE 7 7 4 4 - - 0.0
19/02:20am 19.8 19.8 14.3 70 3.2 ESE 7 7 4 4 - - 0.0
19/02:10am 20.1 19.8 14.4 69 3.3 ESE 9 11 5 6 - - 0.0
19/02:00am 20.4 20.1 14.4 68 3.5 ESE 9 11 5 6 - - 0.0
19/01:50am 20.4 20.4 14.2 67 3.6 ESE 7 9 4 5 - - 0.0
19/01:40am 20.5 20.5 14.2 67 3.7 SE 7 7 4 4 - - 0.0
19/01:30am 20.5 20.5 14.2 67 3.7 SE 7 7 4 4 - - 0.0
19/01:20am 20.5 20.7 14.2 67 3.7 ESE 6 7 3 4 - - 0.0
19/01:10am 20.7 20.7 14.2 66 3.8 ESE 7 11 4 6 - - 0.0
19/01:00am 20.9 20.6 14.4 66 3.8 E 9 9 5 5 - - 0.0
19/12:50am 21.2 21.3 14.5 65 3.9 E 7 9 4 5 - - 0.0
19/12:40am 21.5 21.7 14.6 65 4.1 ESE 7 9 4 5 - - 0.0
19/12:30am 22.0 21.9 14.9 64 4.2 ESE 9 11 5 6 - - 0.0
19/12:20am 22.2 22.1 14.9 63 4.3 ESE 9 11 5 6 - - 0.0
19/12:10am 22.4 22.2 14.8 62 4.5 ESE 9 11 5 6 - - 0.0
19/12:00am 22.6 21.7 14.9 61 4.6 ESE 13 13 7 7 - - 0.0
 
Date/Time
EDT
Temp
°C
App
Temp
°C
Dew
Point
°C
Rel
Hum
%
Delta-T
°C
Wind Press
QNH
hPa
Press
MSL
hPa
Rain since
9am
mm
Dir  Spd
km/h
Gust
km/h
Spd
kts
Gust
kts
18/11:50pm 22.8 22.0 15.0 61 4.7 ESE 13 15 7 8 - - 0.0
18/11:40pm 23.0 22.2 15.0 60 4.8 ESE 13 15 7 8 - - 0.0
18/11:30pm 23.3 22.1 15.0 59 5.0 ESE 15 15 8 8 - - 0.0
18/11:20pm 23.5 21.9 15.1 59 5.0 ESE 17 19 9 10 - - 0.0
18/11:10pm 23.6 22.0 14.9 58 5.2 ESE 17 19 9 10 - - 0.0
18/11:00pm 23.8 22.2 15.0 57 5.3 ESE 17 19 9 10 - - 0.0
18/10:50pm 24.1 21.9 15.0 56 5.5 SE 20 22 11 12 - - 0.0
18/10:40pm 24.3 22.1 15.0 56 5.6 SE 20 22 11 12 - - 0.0
18/10:30pm 24.4 22.3 14.8 55 5.8 SE 19 20 10 11 - - 0.0
18/10:20pm 24.5 22.8 14.8 54 5.8 SE 17 20 9 11 - - 0.0
18/10:10pm 24.7 22.4 14.7 53 6.0 SE 20 22 11 12 - - 0.0
18/10:00pm 24.9 22.2 14.7 53 6.1 SE 22 26 12 14 - - 0.0
18/09:50pm 25.1 22.4 14.7 52 6.2 SE 22 26 12 14 - - 0.0
18/09:40pm 25.3 22.9 14.5 51 6.5 SE 20 24 11 13 - - 0.0
18/09:30pm 25.5 23.3 14.5 50 6.6 SE 19 24 10 13 - - 0.0
18/09:20pm 25.7 23.4 14.1 48 6.9 SE 19 20 10 11 - - 0.0
18/09:10pm 26.1 23.6 14.0 47 7.2 SE 20 24 11 13 - - 0.0
18/09:00pm 26.3 23.8 14.0 46 7.3 SE 20 22 11 12 - - 0.0
18/08:50pm 26.4 23.9 14.0 46 7.4 SE 20 22 11 12 - - 0.0
18/08:40pm 26.7 24.2 14.0 45 7.6 SE 20 24 11 13 - - 0.0
18/08:30pm 27.0 24.6 13.8 44 7.9 SE 19 19 10 10 - - 0.0
18/08:20pm 27.4 25.0 13.8 43 8.1 SE 19 24 10 13 - - 0.0
18/08:10pm 27.6 25.0 13.7 42 8.3 SE 20 22 11 12 - - 0.0
18/08:00pm 27.7 25.0 13.5 41 8.5 SE 20 24 11 13 - - 0.0
18/07:50pm 28.1 25.3 15.3 45 7.9 SE 24 28 13 15 - - 0.0
18/07:40pm 28.8 25.8 13.8 39 9.0 SE 22 26 12 14 - - 0.0
18/07:30pm 29.4 27.0 12.8 36 9.8 SSE 17 20 9 11 - - 0.0
18/07:20pm 29.8 27.4 12.8 35 10.1 SSE 17 24 9 13 - - 0.0
18/07:10pm 30.1 27.3 12.6 34 10.4 S 19 20 10 11 - - 0.0
18/07:00pm 30.5 27.5 12.5 33 10.7 S 20 24 11 13 - - 0.0
18/06:50pm 30.7 27.8 12.4 32 10.8 S 19 20 10 11 - - 0.0
18/06:40pm 30.8 27.9 12.2 32 11.0 SSW 19 24 10 13 - - 0.0
18/06:30pm 31.3 28.2 12.3 31 11.3 S 20 26 11 14 - - 0.0
18/06:20pm 31.5 29.3 12.1 30 11.5 S 15 20 8 11 - - 0.0
18/06:10pm 31.3 28.2 11.7 30 11.5 SSW 19 22 10 12 - - 0.0
18/06:00pm 31.6 28.3 10.9 28 12.0 S 19 24 10 13 - - 0.0
18/05:50pm 31.8 29.5 10.6 27 12.3 SSE 13 17 7 9 - - 0.0
18/05:40pm 31.8 28.8 10.5 27 12.3 S 17 22 9 12 - - 0.0
18/05:30pm 32.1 29.3 8.6 23 13.2 SSW 13 15 7 8 - - 0.0
18/05:20pm 31.9 29.0 8.3 23 13.2 S 13 20 7 11 - - 0.0
18/05:10pm 32.1 28.8 7.9 22 13.4 S 15 22 8 12 - - 0.0
18/05:00pm 32.0 28.5 7.4 21 13.5 SSW 15 20 8 11 - - 0.0
18/04:50pm 32.0 29.0 7.9 22 13.4 S 13 17 7 9 - - 0.0
18/04:30pm 30.7 27.5 8.4 25 12.4 SSE 15 19 8 10 - - 0.0
18/04:20pm 30.8 27.3 8.7 25 12.4 S 17 24 9 13 - - 0.0
18/04:10pm 30.9 26.7 8.4 24 12.5 S 20 24 11 13 - - 0.0
18/04:00pm 31.2 27.9 7.9 23 12.9 SSE 15 22 8 12 - - 0.0
18/03:50pm 31.8 28.1 7.8 22 13.3 SSW 17 22 9 12 - - 0.0
18/03:40pm 31.9 27.6 7.1 21 13.6 S 19 22 10 12 - - 0.0
18/03:30pm 31.8 28.0 7.5 22 13.4 SSW 17 24 9 13 - - 0.0
18/03:20pm 32.2 27.9 7.1 21 13.8 S 19 20 10 11 - - 0.0
18/03:00pm 30.6 27.0 8.5 25 12.3 S 17 24 9 13 - - 0.0
18/02:50pm 31.4 26.9 8.7 24 12.7 S 22 28 12 15 - - 0.0
18/02:40pm 31.4 27.5 8.5 24 12.8 SSW 19 22 10 12 - - 0.0
18/02:30pm 31.8 27.9 8.8 24 12.9 SSW 19 22 10 12 - - 0.0
18/02:20pm 31.1 27.3 9.0 25 12.4 SW 19 28 10 15 - - 0.0
18/02:10pm 31.2 27.2 8.4 24 12.7 SW 19 22 10 12 - - 0.0
18/02:00pm 29.9 26.5 9.1 27 11.7 SSW 17 26 9 14 - - 0.0
18/01:50pm 30.0 26.6 9.1 27 11.7 SW 17 22 9 12 - - 0.0
18/01:40pm 30.7 27.0 9.5 26 12.0 SSW 19 26 10 14 - - 0.0
18/01:30pm 30.2 27.8 9.9 28 11.5 SW 13 19 7 10 - - 0.0
18/01:20pm 30.2 26.1 10.2 29 11.4 S 22 24 12 13 - - 0.0
18/01:10pm 31.0 29.1 10.5 28 11.8 SW 11 20 6 11 - - 0.0
18/01:00pm 29.9 28.2 10.0 29 11.3 S 9 13 5 7 - - 0.0
18/12:50pm 29.3 27.6 9.7 29 11.1 SSE 9 13 5 7 - - 0.0
18/12:40pm 28.6 26.5 9.9 31 10.5 SSE 11 15 6 8 - - 0.0
18/12:30pm 28.1 25.2 9.6 31 10.4 SSE 15 19 8 10 - - 0.0
18/12:20pm 28.1 24.8 9.6 31 10.4 S 17 24 9 13 - - 0.0
18/12:10pm 28.5 25.3 10.0 31 10.4 SSE 17 24 9 13 - - 0.0
18/12:00pm 28.6 25.8 9.9 31 10.5 S 15 20 8 11 - - 0.0
18/11:50am 27.2 23.7 8.8 31 10.1 S 17 20 9 11 - - 0.0
18/11:40am 27.4 24.4 9.3 32 10.0 SSE 15 19 8 10 - - 0.0
18/11:30am 27.4 24.1 9.6 32 9.9 S 17 20 9 11 - - 0.0
18/11:20am 28.3 25.0 9.6 31 10.5 S 17 20 9 11 - - 0.0
18/11:10am 28.0 24.6 9.1 30 10.5 S 17 20 9 11 - - 0.0
18/11:00am 27.3 23.7 8.3 30 10.4 S 17 19 9 10 - - 0.0
18/10:50am 27.0 23.5 8.7 31 10.0 S 17 19 9 10 - - 0.0
18/10:30am 25.8 22.8 9.2 35 9.1 S 15 19 8 10 - - 0.0
18/10:20am 25.1 21.7 9.0 36 8.8 SSE 17 22 9 12 - - 0.0
18/10:10am 25.2 21.7 8.8 35 8.9 SSE 17 20 9 11 - - 0.0
18/10:00am 25.2 21.7 8.7 35 9.0 SSE 17 20 9 11 - - 0.0
18/09:50am 24.9 21.7 8.6 35 8.8 SSE 15 19 8 10 - - 0.0
18/09:40am 23.5 20.5 7.7 36 8.4 SSE 13 15 7 8 - - 0.0
18/09:30am 23.0 19.5 7.3 36 8.2 SSE 15 17 8 9 - - 0.0
18/09:20am 23.5 19.5 6.8 34 8.7 SSE 17 20 9 11 - - 0.0
18/09:10am 23.2 18.9 7.0 35 8.4 SSE 19 22 10 12 - - 0.0
18/09:00am 22.8 18.5 7.0 36 8.2 SSE 19 20 10 11 - - 0.0
18/08:50am 21.9 18.5 7.5 39 7.5 SSE 15 19 8 10 - - 0.0
18/08:40am 21.6 17.8 7.4 40 7.4 SSE 17 20 9 11 - - 0.0
18/08:30am 21.4 18.0 7.5 40 7.2 S 15 17 8 9 - - 0.0
18/08:20am 20.7 18.3 8.8 46 6.3 S 11 15 6 8 - - 0.0
18/08:10am 19.6 17.6 8.6 49 5.8 S 9 13 5 7 - - 0.0
18/08:00am 18.2 16.3 9.0 55 4.8 S 9 11 5 6 - - 0.0
18/07:50am 17.2 15.4 9.6 61 4.0 S 9 9 5 5 - - 0.0
18/07:40am 16.8 15.1 10.0 64 3.6 S 9 9 5 5 - - 0.0
18/07:30am 16.8 15.7 10.5 66 3.4 S 7 7 4 4 - - 0.0
18/07:20am 17.1 15.8 10.1 63 3.7 S 7 7 4 4 - - 0.0
18/07:10am 17.6 16.4 10.4 62 3.9 S 7 7 4 4 - - 0.0
18/07:00am 18.5 17.0 10.5 59 4.3 S 9 11 5 6 - - 0.0
18/06:50am 19.0 17.1 10.6 58 4.6 S 11 13 6 7 - - 0.0
18/06:40am 19.2 17.4 10.7 58 4.6 S 11 11 6 6 - - 0.0
18/06:30am 19.6 17.8 10.8 56 4.8 SSE 11 13 6 7 - - 0.0
18/06:20am 19.4 17.5 10.6 56 4.8 SSE 11 13 6 7 - - 0.0
18/06:10am 19.4 17.5 10.5 56 4.8 SSE 11 11 6 6 - - 0.0
18/06:00am 19.5 17.6 10.5 56 4.9 SSE 11 13 6 7 - - 0.0
18/05:50am 18.8 16.5 10.6 59 4.5 SSE 13 13 7 7 - - 0.0
18/05:40am 18.9 17.2 11.1 60 4.3 S 11 13 6 7 - - 0.0
18/05:20am 19.9 18.1 11.0 56 4.9 SSE 11 13 6 7 - - 0.0
18/05:10am 20.2 18.0 10.7 54 5.2 SSE 13 13 7 7 - - 0.0
18/05:00am 20.1 18.3 10.8 55 5.1 SSE 11 13 6 7 - - 0.0
18/04:50am 20.0 18.6 10.8 55 5.0 SSE 9 11 5 6 - - 0.0
18/04:40am 18.9 17.1 10.9 59 4.4 SSE 11 11 6 6 - - 0.0
18/04:30am 18.3 16.9 10.9 62 4.0 S 9 11 5 6 - - 0.0
18/04:20am 18.4 17.0 10.9 61 4.1 S 9 9 5 5 - - 0.0
18/04:10am 19.0 18.2 11.1 60 4.3 S 6 9 3 5 - - 0.0
18/04:00am 19.6 18.7 11.4 59 4.5 S 7 7 4 4 - - 0.0
18/03:50am 20.3 19.4 11.5 57 4.9 SSE 7 9 4 5 - - 0.0
18/03:40am 20.7 19.8 11.5 55 5.1 SE 7 9 4 5 - - 0.0
18/03:30am 20.7 19.5 11.6 56 5.1 SSE 9 9 5 5 - - 0.0
18/03:20am 20.8 19.6 11.5 55 5.2 SSE 9 9 5 5 - - 0.0
18/03:10am 21.0 20.1 11.5 54 5.3 SSE 7 11 4 6 - - 0.0
18/03:00am 21.1 19.5 11.5 54 5.4 SSE 11 13 6 7 - - 0.0
18/02:50am 21.2 19.6 11.5 54 5.4 SSE 11 11 6 6 - - 0.0
18/02:40am 21.4 19.8 11.4 53 5.6 SSE 11 13 6 7 - - 0.0
18/02:30am 21.4 20.1 11.4 53 5.6 SSE 9 11 5 6 - - 0.0
18/02:20am 21.6 20.3 11.2 51 5.8 SSE 9 11 5 6 - - 0.0
18/02:10am 22.0 20.7 11.1 50 6.1 SSE 9 11 5 6 - - 0.0
18/02:00am 22.3 21.0 11.1 49 6.2 SSE 9 11 5 6 - - 0.0
18/01:50am 22.5 21.1 10.9 48 6.5 SSE 9 11 5 6 - - 0.0
18/01:40am 22.5 21.1 10.8 47 6.5 SSE 9 11 5 6 - - 0.0
18/01:30am 22.8 21.0 10.8 46 6.7 SSE 11 13 6 7 - - 0.0
18/01:20am 23.2 21.0 10.8 45 6.9 SSE 13 13 7 7 - - 0.0
18/01:10am 23.2 21.4 10.7 45 7.0 SSE 11 13 6 7 - - 0.0
18/01:00am 23.2 21.4 10.7 45 7.0 SSE 11 11 6 6 - - 0.0
18/12:50am 23.4 21.6 10.7 44 7.1 SSE 11 13 6 7 - - 0.0
18/12:40am 23.2 20.9 10.5 44 7.0 SSE 13 15 7 8 - - 0.0
18/12:30am 22.1 20.1 10.3 47 6.5 S 11 15 6 8 - - 0.0
18/12:20am 21.8 20.1 10.0 47 6.4 S 9 11 5 6 - - 0.0
18/12:10am 21.5 19.8 9.9 47 6.3 SSW 9 11 5 6 - - 0.0
18/12:00am 21.3 19.6 9.8 48 6.2 SSW 9 9 5 5 - - 0.0
 
Date/Time
EDT
Temp
°C
App
Temp
°C
Dew
Point
°C
Rel
Hum
%
Delta-T
°C
Wind Press
QNH
hPa
Press
MSL
hPa
Rain since
9am
mm
Dir  Spd
km/h
Gust
km/h
Spd
kts
Gust
kts
17/11:50pm 21.5 19.8 9.9 47 6.3 SSW 9 9 5 5 - - 0.0
17/11:40pm 21.8 20.1 10.0 47 6.4 SSW 9 11 5 6 - - 0.0
17/11:30pm 22.2 21.0 10.2 46 6.6 SSW 7 9 4 5 - - 0.0
17/11:20pm 22.7 21.8 10.5 46 6.7 SSW 6 7 3 4 - - 0.0
17/11:10pm 22.9 21.8 10.5 45 6.9 SW 7 9 4 5 - - 0.0
17/11:00pm 23.1 22.6 10.6 45 6.9 SW 4 6 2 3 - - 0.0
17/10:50pm 23.3 22.7 10.4 44 7.1 SW 4 6 2 3 - - 0.0
17/10:40pm 23.4 22.9 10.8 45 7.0 SSE 4 4 2 2 - - 0.0
17/10:20pm 23.1 22.2 10.6 45 6.9 SSE 6 7 3 4 - - 0.0
17/10:10pm 23.6 22.6 10.4 43 7.3 SSE 6 7 3 4 - - 0.0
17/10:00pm 23.5 22.0 10.4 43 7.3 SSE 9 11 5 6 - - 0.0
17/09:50pm 23.3 22.1 10.2 43 7.2 S 7 11 4 6 - - 0.0
17/09:40pm 23.9 23.0 10.5 42 7.5 SSW 6 6 3 3 - - 0.0
17/09:30pm 24.9 24.4 10.8 41 7.9 S 4 6 2 3 - - 0.0
17/09:10pm 25.0 23.9 10.7 40 8.0 SE 7 9 4 5 - - 0.0
17/09:00pm 24.9 23.4 10.4 40 8.1 SE 9 9 5 5 - - 0.0
17/08:50pm 25.3 24.2 10.6 39 8.3 SE 7 7 4 4 - - 0.0
17/08:40pm 25.9 24.8 10.6 38 8.6 SE 7 7 4 4 - - 0.0
17/08:30pm 26.6 25.7 10.7 37 9.0 SSE 6 7 3 4 - - 0.0
17/08:20pm 26.9 25.5 10.8 36 9.1 SSE 9 11 5 6 - - 0.0
17/08:00pm 27.0 25.4 10.1 34 9.5 S 9 15 5 8 - - 0.0
17/07:40pm 27.9 26.6 10.0 32 10.1 S 7 9 4 5 - - 0.0
17/07:30pm 28.3 26.6 9.9 31 10.4 SSW 9 11 5 6 - - 0.0
17/07:20pm 28.6 27.3 10.1 31 10.5 S 7 9 4 5 - - 0.0
17/07:10pm 28.9 26.9 10.2 31 10.6 SSW 11 15 6 8 - - 0.0
17/07:00pm 29.0 26.6 10.1 30 10.7 S 13 15 7 8 - - 0.0
17/06:50pm 28.9 26.9 10.2 31 10.6 S 11 13 6 7 - - 0.0
17/06:40pm 29.1 26.8 10.4 31 10.7 SSE 13 15 7 8 - - 0.0
17/06:30pm 29.1 26.8 10.4 31 10.7 S 13 17 7 9 - - 0.0
17/06:20pm 29.2 26.5 10.5 31 10.7 S 15 17 8 9 - - 0.0
17/06:10pm 29.4 26.3 10.4 30 10.8 S 17 22 9 12 - - 0.0
17/06:00pm 29.5 27.2 10.4 30 10.9 SSE 13 19 7 10 - - 0.0
17/05:50pm 29.4 27.1 10.5 31 10.8 SSE 13 17 7 9 - - 0.0
17/05:40pm 29.7 27.3 10.2 29 11.1 S 13 19 7 10 - - 0.0
17/05:30pm 30.0 27.6 10.1 29 11.3 S 13 17 7 9 - - 0.0
17/05:20pm 29.9 27.5 10.1 29 11.3 S 13 17 7 9 - - 0.0
17/05:10pm 30.1 27.8 10.4 29 11.3 S 13 17 7 9 - - 0.0
17/05:00pm 30.3 28.4 10.4 29 11.4 S 11 19 6 10 - - 0.0
17/04:40pm 30.0 27.6 10.2 29 11.3 S 13 19 7 10 - - 0.0
17/04:20pm 30.3 28.2 9.9 28 11.6 S 11 19 6 10 - - 0.0
17/04:10pm 30.1 27.9 9.4 27 11.7 S 11 19 6 10 - - 0.0
17/04:00pm 30.4 28.0 10.0 28 11.6 SSW 13 19 7 10 - - 0.0
17/03:50pm 30.4 27.9 9.8 28 11.7 SE 13 19 7 10 - - 0.0
17/03:40pm 30.3 27.7 9.4 27 11.8 SE 13 17 7 9 - - 0.0
17/03:30pm 31.0 28.0 9.4 26 12.2 SE 15 19 8 10 - - 0.0
17/03:20pm 30.7 28.1 9.5 26 12.0 SSE 13 19 7 10 - - 0.0
17/03:10pm 30.7 29.6 9.8 27 11.9 SW 6 15 3 8 - - 0.0
17/03:00pm 30.2 29.4 9.6 27 11.7 ESE 4 7 2 4 - - 0.0
17/02:50pm 30.4 29.0 9.6 27 11.8 SSE 7 13 4 7 - - 0.0
17/02:40pm 30.2 28.0 9.5 27 11.7 SE 11 15 6 8 - - 0.0
17/02:30pm 29.6 27.4 9.4 28 11.4 SE 11 17 6 9 - - 0.0
17/02:20pm 30.1 27.2 9.8 28 11.5 SE 15 20 8 11 - - 0.0
17/02:00pm 29.6 28.3 9.9 29 11.2 ESE 7 13 4 7 - - 0.0
17/01:50pm 29.5 28.2 10.1 30 11.0 W 7 9 4 5 - - 0.0
17/01:40pm 29.2 28.3 10.5 31 10.7 W 6 9 3 5 - - 0.0
17/01:30pm 29.3 28.2 10.7 31 10.7 E 7 11 4 6 - - 0.0
17/01:20pm 29.6 28.0 10.3 30 11.0 NE 9 13 5 7 - - 0.0
17/01:10pm 29.3 27.9 11.0 32 10.5 NE 9 17 5 9 - - 0.0
17/01:00pm 29.4 28.7 11.5 33 10.4 SSW 6 13 3 7 - - 0.0
17/12:50pm 29.1 28.2 11.3 33 10.3 ESE 7 11 4 6 - - 0.0
17/12:40pm 28.0 26.5 10.4 33 10.0 ESE 9 15 5 8 - - 0.0
17/12:30pm 27.8 26.5 11.4 36 9.4 E 9 11 5 6 - - 0.0

Other formats

Comma delimited format used in spreadsheet applications
http://www.bom.gov.au/fwo/IDN60801/IDN60801.99791.axf

JavaScript Object Notation format (JSON) in row-major order
http://www.bom.gov.au/fwo/IDN60801/IDN60801.99791.json

Data quality

Most of these data are generated automatically and are frequently updated. Quality checks on data are not normally performed. It is possible for incorrect values to appear. Refer to information at About Latest Weather Observations and please check the disclaimer before using these data.